Vagabond — FLAO — position and weather

sailwx.info

Track history (hours):
 
Tides and Currents Weather Stations Pressure Air Temp Water Temp Dewpoint Dewpoint Depression Visibility Wind Speed Wind Dir Waves Ship Positions

Vagabond

Ship's website: http://www.vagabond.fr/

Last reported at 2016-Sep-27 13:00 UTC. Time now 2017-Mar-25 19:50 UTC.
Position N 53°18' W 060°24'.
Warning: this ship's position is months out of date.

Length 14 m.

Type: Pleasure craft. MMSI: 227640000.

Barometer 1017.5 mb
Air temperature 3.5 ° C

Date/timePositionNaut miles runAvg speedWind from/ knotsBaromVisibWave heightAir tempDewpointWater temp
2016-Sep-27 13:00N 53°18' W 060°24'0 0.0 1017.5 3.5
2016-Sep-27 12:00N 53°18' W 060°24'0 0.0 1016.7 2.0
2016-Sep-26 11:00N 53°18' W 060°24'6 6.0 1010.7 2.3
2016-Sep-26 10:00N 53°24' W 060°24'0 0.0 1011.3 2.3
2016-Sep-26 09:00N 53°24' W 060°24'0 0.0 1011.6 2.8
2016-Sep-26 08:00N 53°24' W 060°24'0 0.0 1011.6 3.3
2016-Sep-26 07:00N 53°24' W 060°24'0 0.0 1011.8 3.8
2016-Sep-26 06:00N 53°24' W 060°24'0 0.0 1011.9 4.3
2016-Sep-26 05:00N 53°24' W 060°24'0 0.0 1012.1 4.5
2016-Sep-26 02:00N 53°24' W 060°24'0 0.0 1012.4 5.3
2016-Sep-26 01:00N 53°24' W 060°24'0 0.0 1012.2 5.5
2016-Sep-26 00:00N 53°24' W 060°24'0 0.0 1012.1 5.8
2016-Sep-25 23:00N 53°24' W 060°24'0 0.0 1011.9 5.5
2016-Sep-25 22:00N 53°24' W 060°24'0 0.0 1011.3 6.8
2016-Sep-25 21:00N 53°24' W 060°24'0 0.0 1010.8 6.5
2016-Sep-25 20:00N 53°24' W 060°24'0 0.0 1010.2 8.0
2016-Sep-25 19:00N 53°24' W 060°24'0 0.0 1009.9 7.8
2016-Sep-25 18:00N 53°24' W 060°24'0 0.0 1009.7 8.3
2016-Sep-25 17:00N 53°24' W 060°24'0 0.0 1009.7 8.0
2016-Sep-25 16:00N 53°24' W 060°24'0 0.0 1009.6 7.8
2016-Sep-25 15:00N 53°24' W 060°24'0 0.0 1009.5 7.0
2016-Sep-25 14:00N 53°24' W 060°24'0 0.0 1009.6 6.8
2016-Sep-25 13:00N 53°24' W 060°24'0 0.0 1008.9 5.8
2016-Sep-25 12:00N 53°24' W 060°24'0 0.0 1008.6 5.0
2016-Sep-25 11:00N 53°24' W 060°24'0 0.0 1008.4 5.3
2016-Sep-25 10:00N 53°24' W 060°24'0 0.0 1007.9 5.3
2016-Sep-25 09:00N 53°24' W 060°24'4 3.6 1007.5 5.3
2016-Sep-25 08:00N 53°24' W 060°18'4 3.6 1007.0 6.3
2016-Sep-25 07:00N 53°24' W 060°12'7 7.2 1006.4 6.3
2016-Sep-25 06:00N 53°24' W 060°00'6 6.0 1006.3 6.3
2016-Sep-25 05:00N 53°30' W 060°00'12 4.1 1006.7 6.3
2016-Sep-25 02:00N 53°36' W 059°42'7 7.1 1006.6 8.3
2016-Sep-25 01:00N 53°36' W 059°30'7 7.0 1006.6 8.5
2016-Sep-25 00:00N 53°42' W 059°24'4 3.6 1006.8 8.0
2016-Sep-24 23:00N 53°42' W 059°18'11 5.3 1006.8 7.8
2016-Sep-24 21:00N 53°42' W 059°00'0 0.0 1007.2 7.5
2016-Sep-24 19:00N 53°42' W 059°00'0 0.0 1006.9 9.5
2016-Sep-24 18:00N 53°42' W 059°00'0 0.0 1006.8 9.5
2016-Sep-24 17:00N 53°42' W 059°00'0 0.0 1006.8 9.8
2016-Sep-24 16:00N 53°42' W 059°00'0 0.0 1007.2 9.5
2016-Sep-24 15:00N 53°42' W 059°00'0 0.0 1007.5 9.3
2016-Sep-24 14:00N 53°42' W 059°00'0 0.0 1007.9 9.0
2016-Sep-24 11:00N 53°42' W 059°00'0 0.0 1007.9 7.0
2016-Sep-24 09:00N 53°42' W 059°00'0 0.0 1008.2 5.0
2016-Sep-24 08:00N 53°42' W 059°00'0 0.0 1008.5 5.0
2016-Sep-24 02:00N 53°42' W 059°00'0 0.0 1010.2 6.3
2016-Sep-24 01:00N 53°42' W 059°00'0 0.0 1010.6 6.5
2016-Sep-24 00:00N 53°42' W 059°00'0 0.0 1011.0 6.5
2016-Sep-23 23:00N 53°42' W 059°00'12 6.0 1011.4 8.8
2016-Sep-23 21:00N 53°54' W 059°00'4 3.5 1011.6 10.3
2016-Sep-23 20:00N 53°54' W 058°54'6 6.0 1011.8 10.0
2016-Sep-23 19:00N 54°00' W 058°54'4 3.5 1012.1 10.3
2016-Sep-23 18:00N 54°00' W 058°48'9 4.6 1012.4 9.8
2016-Sep-23 16:00N 54°06' W 058°36'4 3.5 1013.1 9.5
2016-Sep-23 15:00N 54°06' W 058°30'7 7.0 1013.1 9.5
2016-Sep-23 14:00N 54°12' W 058°24'0 0.0 1013.7 9.3
2016-Sep-23 13:00N 54°12' W 058°24'0 0.0 1013.7 8.3
2016-Sep-23 12:00N 54°12' W 058°24'0 0.0 1013.8 8.0
2016-Sep-23 11:00N 54°12' W 058°24'0 0.0 1014.0 7.8
2016-Sep-23 10:00N 54°12' W 058°24'0 0.0 1013.7 7.0
2016-Sep-23 09:00N 54°12' W 058°24'0 0.0 1013.4 6.8
2016-Sep-23 08:00N 54°12' W 058°24'0 0.0 1012.8 6.5
2016-Sep-23 07:00N 54°12' W 058°24'0 0.0 1012.5 6.8
2016-Sep-23 06:00N 54°12' W 058°24'0 0.0 1012.5 6.8
2016-Sep-23 05:00N 54°12' W 058°24'0 0.0 1012.1 6.5
2016-Sep-23 02:00N 54°12' W 058°24'0 0.0 1012.0 6.5
2016-Sep-23 01:00N 54°12' W 058°24'0 0.0 1011.9 6.3
2016-Sep-23 00:00N 54°12' W 058°24'0 0.0 1011.7 6.5
2016-Sep-22 23:00N 54°12' W 058°24'0 0.0 1011.5 6.0
2016-Sep-22 22:00N 54°12' W 058°24'0 0.0 1011.0 6.3
2016-Sep-22 21:00N 54°12' W 058°24'0 0.0 1010.5 6.5
2016-Sep-22 20:00N 54°12' W 058°24'0 0.0 1009.8 7.0
2016-Sep-22 19:00N 54°12' W 058°24'0 0.0 1009.0 7.3
2016-Sep-22 18:00N 54°12' W 058°24'0 0.0 1008.4 7.8
2016-Sep-22 17:00N 54°12' W 058°24'0 0.0 1007.8 8.0
2016-Sep-22 16:00N 54°12' W 058°24'0 0.0 1007.6 8.0
2016-Sep-22 15:00N 54°12' W 058°24'4 3.5 1007.2 7.8
2016-Sep-22 14:00N 54°12' W 058°18'0 0.0 1006.7 7.0
2016-Sep-22 12:00N 54°12' W 058°18'0 0.0 1005.1 7.0
2016-Sep-22 11:00N 54°12' W 058°18'0 0.0 1004.3 7.3
2016-Sep-22 10:00N 54°12' W 058°18'0 0.0 1003.5 7.5
2016-Sep-22 09:00N 54°12' W 058°18'9 9.2 1002.7 8.3
2016-Sep-22 08:00N 54°18' W 058°06'4 3.5 1001.9 7.3
2016-Sep-22 07:00N 54°18' W 058°00'4 3.5 1001.2 8.5
2016-Sep-22 06:00N 54°18' W 057°54'4 3.5 1000.8 7.8
2016-Sep-22 05:00N 54°18' W 057°48'7 6.9 1000.4 9.0
2016-Sep-22 04:00N 54°24' W 057°42'10 5.2 1000.4 8.8
2016-Sep-22 02:00N 54°24' W 057°24'7 6.9 1000.8 7.8
2016-Sep-22 01:00N 54°30' W 057°18'3 3.5 1000.8 8.0
2016-Sep-22 00:00N 54°30' W 057°12'7 6.9 1001.0 7.3
2016-Sep-21 23:00N 54°36' W 057°06'3 3.5 1001.0 7.8
2016-Sep-21 22:00N 54°36' W 057°12'9 4.6 1001.0 7.8
2016-Sep-21 20:00N 54°42' W 057°24'7 6.9 1001.2 8.8
2016-Sep-21 19:00N 54°48' W 057°30'12 6.0 1001.1 8.5
2016-Sep-21 17:00N 54°54' W 057°48'3 3.5 1001.3 8.8
2016-Sep-21 16:00N 54°54' W 057°54'12 6.0 1001.6 8.8
2016-Sep-21 14:00N 55°00' W 058°12'7 3.4 1002.2 8.3
2016-Sep-21 12:00N 55°00' W 058°24'7 6.9 1002.8 7.5
2016-Sep-21 11:00N 55°00' W 058°36'9 4.6 1003.1 8.0
2016-Sep-21 09:00N 55°06' W 058°48'12 6.0 1004.0 8.5
2016-Sep-21 07:00N 55°12' W 059°06'3 3.4 1004.9 8.3
2016-Sep-21 06:00N 55°12' W 059°12'9 9.1 1005.4 10.5
2016-Sep-21 05:00N 55°18' W 059°24'10 5.1 1005.8 9.5
2016-Sep-21 03:00N 55°18' W 059°42'7 6.9 1007.1 9.5
2016-Sep-21 02:00N 55°24' W 059°48'3 3.4 1007.6 9.3
2016-Sep-21 01:00N 55°24' W 059°54'7 6.8 1008.2 10.0
2016-Sep-21 00:00N 55°24' W 060°06'7 6.9 1008.7 9.0
2016-Sep-20 23:00N 55°30' W 060°12'3 3.4 1009.2 10.3
2016-Sep-20 22:00N 55°30' W 060°18'7 3.4 1009.7 11.8
2016-Sep-20 20:00N 55°36' W 060°24'6 6.0 1010.4 12.3
2016-Sep-20 19:00N 55°42' W 060°24'7 6.9 1011.4 11.5
2016-Sep-20 18:00N 55°48' W 060°18'0 0.0 1012.4 10.0
2016-Sep-20 17:00N 55°48' W 060°18'7 6.9 1013.5 8.5
2016-Sep-20 16:00N 55°54' W 060°24'10 5.0 1014.4 9.0
2016-Sep-20 14:00N 55°54' W 060°42'7 6.9 1016.6 7.0
2016-Sep-20 13:00N 56°00' W 060°48'7 6.7 1017.4 9.0
2016-Sep-20 12:00N 56°00' W 061°00'3 3.4 1018.2 6.5
2016-Sep-20 11:00N 56°00' W 061°06'3 3.4 1018.5 5.3
2016-Sep-20 10:00N 56°00' W 061°12'6 6.0 1019.1 5.8
2016-Sep-20 09:00N 56°06' W 061°12'7 6.9 1019.9 5.3
2016-Sep-20 08:00N 56°12' W 061°18'6 3.0 1020.2 5.8
2016-Sep-20 06:00N 56°18' W 061°18'7 6.9 1021.4 5.8
2016-Sep-20 05:00N 56°24' W 061°24'12 5.8 1022.2 5.0
2016-Sep-20 03:00N 56°30' W 061°42'0 0.0 1022.9 5.3
2016-Sep-20 02:00N 56°30' W 061°42'0 0.0 1023.1 4.8
2016-Sep-20 01:00N 56°30' W 061°42'0 0.0 1023.3 4.8
2016-Sep-20 00:00N 56°30' W 061°42'0 0.0 1023.8 4.3
2016-Sep-19 23:00N 56°30' W 061°42'0 0.0 1024.1 4.8
2016-Sep-19 22:00N 56°30' W 061°42'0 0.0 1024.3 7.3
2016-Sep-19 21:00N 56°30' W 061°42'0 0.0 1024.8 11.5
2016-Sep-19 19:00N 56°30' W 061°42'0 0.0 1025.1 12.5
2016-Sep-19 18:00N 56°30' W 061°42'0 0.0 1025.7 8.8
2016-Sep-19 16:00N 56°30' W 061°42'0 0.0 1026.5 8.3
2016-Sep-19 15:00N 56°30' W 061°42'0 0.0 1027.2 4.5
2016-Sep-19 14:00N 56°30' W 061°42'0 0.0 1027.9 4.8
2016-Sep-19 12:00N 56°30' W 061°42'0 0.0 1028.3 1.3
2016-Sep-19 11:00N 56°30' W 061°42'0 0.0 1028.3 -0.5
2016-Sep-19 10:00N 56°30' W 061°42'0 0.0 1028.1 0.3
2016-Sep-19 09:00N 56°30' W 061°42'0 0.0 1027.9 1.0
2016-Sep-19 08:00N 56°30' W 061°42'6 2.0 1027.9 0.8
2016-Sep-19 05:00N 56°36' W 061°42'6 2.0 1027.4 1.8
2016-Sep-19 02:00N 56°42' W 061°42'0 0.0 1026.8 1.5
2016-Sep-19 00:00N 56°42' W 061°42'7 6.8 1025.8 2.0
2016-Sep-18 23:00N 56°48' W 061°36'6 6.0 1025.1 2.5
2016-Sep-18 22:00N 56°54' W 061°36'7 6.8 1024.6 2.8
2016-Sep-18 21:00N 57°00' W 061°30'9 8.9 1024.3 2.5
2016-Sep-18 20:00N 56°54' W 061°18'6 6.0 1024.0 3.3
2016-Sep-18 19:00N 57°00' W 061°18'7 6.8 1024.0 3.0
2016-Sep-18 18:00N 57°06' W 061°24'7 6.8 1023.5 3.5
2016-Sep-18 17:00N 57°12' W 061°30'7 6.8 1023.2 3.3
2016-Sep-18 16:00N 57°18' W 061°36'6 6.0 1022.8 2.5
2016-Sep-18 15:00N 57°24' W 061°36'6 6.5 1022.7 3.0
2016-Sep-18 14:00N 57°24' W 061°48'6 6.5 1022.1 4.8
2016-Sep-18 13:00N 57°24' W 062°00'7 6.8 1021.8 3.8
2016-Sep-18 12:00N 57°30' W 062°06'7 6.8 1021.3 2.8
2016-Sep-18 11:00N 57°36' W 062°00'3 3.2 1020.9 2.3
2016-Sep-18 10:00N 57°36' W 061°54'6 6.0 1020.2 1.3
2016-Sep-18 09:00N 57°42' W 061°54'3 3.2 1019.8 2.0
2016-Sep-18 08:00N 57°42' W 062°00'0 0.0 1019.6 1.8
2016-Sep-18 07:00N 57°42' W 062°00'0 0.0 1019.6 2.3
2016-Sep-18 06:00N 57°42' W 062°00'0 0.0 1019.4 2.0
2016-Sep-18 03:00N 57°42' W 062°00'0 0.0 1018.7 2.3
2016-Sep-18 02:00N 57°42' W 062°00'0 0.0 1018.6 2.3
2016-Sep-18 01:00N 57°42' W 062°00'0 0.0 1017.8 2.3
2016-Sep-17 23:00N 57°42' W 062°00'0 0.0 1017.1 3.3
2016-Sep-17 22:00N 57°42' W 062°00'0 0.0 1016.2 3.8
2016-Sep-17 21:00N 57°42' W 062°00'0 0.0 1015.6 4.5
2016-Sep-17 20:00N 57°42' W 062°00'0 0.0 1015.2 5.5
2016-Sep-17 18:00N 57°42' W 062°00'0 0.0 1013.5 5.5
2016-Sep-17 17:00N 57°42' W 062°00'0 0.0 1012.8 5.3
2016-Sep-17 16:00N 57°42' W 062°00'0 0.0 1012.0 5.3
2016-Sep-17 15:00N 57°42' W 062°00'0 0.0 1011.3 4.5
2016-Sep-17 14:00N 57°42' W 062°00'   1010.8 4.8
Track history (hours):
 
Tides and Currents Weather Stations Pressure Air Temp Water Temp Dewpoint Dewpoint Depression Visibility Wind Speed Wind Dir Waves Ship Positions

Vagabond

Ship's website: http://www.vagabond.fr/

Last reported at 2016-Sep-27 13:00 UTC. Time now 2017-Mar-25 19:50 UTC.
Position N 53°18' W 060°24'.
Warning: this ship's position is months out of date.

Length 14 m.

Type: Pleasure craft. MMSI: 227640000.

Barometer 1017.5 mb
Air temperature 3.5 ° C

Date/timePositionNaut miles runAvg speedWind from/ knotsBaromVisibWave heightAir tempDewpointWater temp
2016-Sep-27 13:00N 53°18' W 060°24'0 0.0 1017.5 3.5
2016-Sep-27 12:00N 53°18' W 060°24'0 0.0 1016.7 2.0
2016-Sep-26 11:00N 53°18' W 060°24'6 6.0 1010.7 2.3
2016-Sep-26 10:00N 53°24' W 060°24'0 0.0 1011.3 2.3
2016-Sep-26 09:00N 53°24' W 060°24'0 0.0 1011.6 2.8
2016-Sep-26 08:00N 53°24' W 060°24'0 0.0 1011.6 3.3
2016-Sep-26 07:00N 53°24' W 060°24'0 0.0 1011.8 3.8
2016-Sep-26 06:00N 53°24' W 060°24'0 0.0 1011.9 4.3
2016-Sep-26 05:00N 53°24' W 060°24'0 0.0 1012.1 4.5
2016-Sep-26 02:00N 53°24' W 060°24'0 0.0 1012.4 5.3
2016-Sep-26 01:00N 53°24' W 060°24'0 0.0 1012.2 5.5
2016-Sep-26 00:00N 53°24' W 060°24'0 0.0 1012.1 5.8
2016-Sep-25 23:00N 53°24' W 060°24'0 0.0 1011.9 5.5
2016-Sep-25 22:00N 53°24' W 060°24'0 0.0 1011.3 6.8
2016-Sep-25 21:00N 53°24' W 060°24'0 0.0 1010.8 6.5
2016-Sep-25 20:00N 53°24' W 060°24'0 0.0 1010.2 8.0
2016-Sep-25 19:00N 53°24' W 060°24'0 0.0 1009.9 7.8
2016-Sep-25 18:00N 53°24' W 060°24'0 0.0 1009.7 8.3
2016-Sep-25 17:00N 53°24' W 060°24'0 0.0 1009.7 8.0
2016-Sep-25 16:00N 53°24' W 060°24'0 0.0 1009.6 7.8
2016-Sep-25 15:00N 53°24' W 060°24'0 0.0 1009.5 7.0
2016-Sep-25 14:00N 53°24' W 060°24'0 0.0 1009.6 6.8
2016-Sep-25 13:00N 53°24' W 060°24'0 0.0 1008.9 5.8
2016-Sep-25 12:00N 53°24' W 060°24'0 0.0 1008.6 5.0
2016-Sep-25 11:00N 53°24' W 060°24'0 0.0 1008.4 5.3
2016-Sep-25 10:00N 53°24' W 060°24'0 0.0 1007.9 5.3
2016-Sep-25 09:00N 53°24' W 060°24'4 3.6 1007.5 5.3
2016-Sep-25 08:00N 53°24' W 060°18'4 3.6 1007.0 6.3
2016-Sep-25 07:00N 53°24' W 060°12'7 7.2 1006.4 6.3
2016-Sep-25 06:00N 53°24' W 060°00'6 6.0 1006.3 6.3
2016-Sep-25 05:00N 53°30' W 060°00'12 4.1 1006.7 6.3
2016-Sep-25 02:00N 53°36' W 059°42'7 7.1 1006.6 8.3
2016-Sep-25 01:00N 53°36' W 059°30'7 7.0 1006.6 8.5
2016-Sep-25 00:00N 53°42' W 059°24'4 3.6 1006.8 8.0
2016-Sep-24 23:00N 53°42' W 059°18'11 5.3 1006.8 7.8
2016-Sep-24 21:00N 53°42' W 059°00'0 0.0 1007.2 7.5
2016-Sep-24 19:00N 53°42' W 059°00'0 0.0 1006.9 9.5
2016-Sep-24 18:00N 53°42' W 059°00'0 0.0 1006.8 9.5
2016-Sep-24 17:00N 53°42' W 059°00'0 0.0 1006.8 9.8
2016-Sep-24 16:00N 53°42' W 059°00'0 0.0 1007.2 9.5
2016-Sep-24 15:00N 53°42' W 059°00'0 0.0 1007.5 9.3
2016-Sep-24 14:00N 53°42' W 059°00'0 0.0 1007.9 9.0
2016-Sep-24 11:00N 53°42' W 059°00'0 0.0 1007.9 7.0
2016-Sep-24 09:00N 53°42' W 059°00'0 0.0 1008.2 5.0
2016-Sep-24 08:00N 53°42' W 059°00'0 0.0 1008.5 5.0
2016-Sep-24 02:00N 53°42' W 059°00'0 0.0 1010.2 6.3
2016-Sep-24 01:00N 53°42' W 059°00'0 0.0 1010.6 6.5
2016-Sep-24 00:00N 53°42' W 059°00'0 0.0 1011.0 6.5
2016-Sep-23 23:00N 53°42' W 059°00'12 6.0 1011.4 8.8
2016-Sep-23 21:00N 53°54' W 059°00'4 3.5 1011.6 10.3
2016-Sep-23 20:00N 53°54' W 058°54'6 6.0 1011.8 10.0
2016-Sep-23 19:00N 54°00' W 058°54'4 3.5 1012.1 10.3
2016-Sep-23 18:00N 54°00' W 058°48'9 4.6 1012.4 9.8
2016-Sep-23 16:00N 54°06' W 058°36'4 3.5 1013.1 9.5
2016-Sep-23 15:00N 54°06' W 058°30'7 7.0 1013.1 9.5
2016-Sep-23 14:00N 54°12' W 058°24'0 0.0 1013.7 9.3
2016-Sep-23 13:00N 54°12' W 058°24'0 0.0 1013.7 8.3
2016-Sep-23 12:00N 54°12' W 058°24'0 0.0 1013.8 8.0
2016-Sep-23 11:00N 54°12' W 058°24'0 0.0 1014.0 7.8
2016-Sep-23 10:00N 54°12' W 058°24'0 0.0 1013.7 7.0
2016-Sep-23 09:00N 54°12' W 058°24'0 0.0 1013.4 6.8
2016-Sep-23 08:00N 54°12' W 058°24'0 0.0 1012.8 6.5
2016-Sep-23 07:00N 54°12' W 058°24'0 0.0 1012.5 6.8
2016-Sep-23 06:00N 54°12' W 058°24'0 0.0 1012.5 6.8
2016-Sep-23 05:00N 54°12' W 058°24'0 0.0 1012.1 6.5
2016-Sep-23 02:00N 54°12' W 058°24'0 0.0 1012.0 6.5
2016-Sep-23 01:00N 54°12' W 058°24'0 0.0 1011.9 6.3
2016-Sep-23 00:00N 54°12' W 058°24'0 0.0 1011.7 6.5
2016-Sep-22 23:00N 54°12' W 058°24'0 0.0 1011.5 6.0
2016-Sep-22 22:00N 54°12' W 058°24'0 0.0 1011.0 6.3
2016-Sep-22 21:00N 54°12' W 058°24'0 0.0 1010.5 6.5
2016-Sep-22 20:00N 54°12' W 058°24'0 0.0 1009.8 7.0
2016-Sep-22 19:00N 54°12' W 058°24'0 0.0 1009.0 7.3
2016-Sep-22 18:00N 54°12' W 058°24'0 0.0 1008.4 7.8
2016-Sep-22 17:00N 54°12' W 058°24'0 0.0 1007.8 8.0
2016-Sep-22 16:00N 54°12' W 058°24'0 0.0 1007.6 8.0
2016-Sep-22 15:00N 54°12' W 058°24'4 3.5 1007.2 7.8
2016-Sep-22 14:00N 54°12' W 058°18'0 0.0 1006.7 7.0
2016-Sep-22 12:00N 54°12' W 058°18'0 0.0 1005.1 7.0
2016-Sep-22 11:00N 54°12' W 058°18'0 0.0 1004.3 7.3
2016-Sep-22 10:00N 54°12' W 058°18'0 0.0 1003.5 7.5
2016-Sep-22 09:00N 54°12' W 058°18'9 9.2 1002.7 8.3
2016-Sep-22 08:00N 54°18' W 058°06'4 3.5 1001.9 7.3
2016-Sep-22 07:00N 54°18' W 058°00'4 3.5 1001.2 8.5
2016-Sep-22 06:00N 54°18' W 057°54'4 3.5 1000.8 7.8
2016-Sep-22 05:00N 54°18' W 057°48'7 6.9 1000.4 9.0
2016-Sep-22 04:00N 54°24' W 057°42'10 5.2 1000.4 8.8
2016-Sep-22 02:00N 54°24' W 057°24'7 6.9 1000.8 7.8
2016-Sep-22 01:00N 54°30' W 057°18'3 3.5 1000.8 8.0
2016-Sep-22 00:00N 54°30' W 057°12'7 6.9 1001.0 7.3
2016-Sep-21 23:00N 54°36' W 057°06'3 3.5 1001.0 7.8
2016-Sep-21 22:00N 54°36' W 057°12'9 4.6 1001.0 7.8
2016-Sep-21 20:00N 54°42' W 057°24'7 6.9 1001.2 8.8
2016-Sep-21 19:00N 54°48' W 057°30'12 6.0 1001.1 8.5
2016-Sep-21 17:00N 54°54' W 057°48'3 3.5 1001.3 8.8
2016-Sep-21 16:00N 54°54' W 057°54'12 6.0 1001.6 8.8
2016-Sep-21 14:00N 55°00' W 058°12'7 3.4 1002.2 8.3
2016-Sep-21 12:00N 55°00' W 058°24'7 6.9 1002.8 7.5
2016-Sep-21 11:00N 55°00' W 058°36'9 4.6 1003.1 8.0
2016-Sep-21 09:00N 55°06' W 058°48'12 6.0 1004.0 8.5
2016-Sep-21 07:00N 55°12' W 059°06'3 3.4 1004.9 8.3
2016-Sep-21 06:00N 55°12' W 059°12'9 9.1 1005.4 10.5
2016-Sep-21 05:00N 55°18' W 059°24'10 5.1 1005.8 9.5
2016-Sep-21 03:00N 55°18' W 059°42'7 6.9 1007.1 9.5
2016-Sep-21 02:00N 55°24' W 059°48'3 3.4 1007.6 9.3
2016-Sep-21 01:00N 55°24' W 059°54'7 6.8 1008.2 10.0
2016-Sep-21 00:00N 55°24' W 060°06'7 6.9 1008.7 9.0
2016-Sep-20 23:00N 55°30' W 060°12'3 3.4 1009.2 10.3
2016-Sep-20 22:00N 55°30' W 060°18'7 3.4 1009.7 11.8
2016-Sep-20 20:00N 55°36' W 060°24'6 6.0 1010.4 12.3
2016-Sep-20 19:00N 55°42' W 060°24'7 6.9 1011.4 11.5
2016-Sep-20 18:00N 55°48' W 060°18'0 0.0 1012.4 10.0
2016-Sep-20 17:00N 55°48' W 060°18'7 6.9 1013.5 8.5
2016-Sep-20 16:00N 55°54' W 060°24'10 5.0 1014.4 9.0
2016-Sep-20 14:00N 55°54' W 060°42'7 6.9 1016.6 7.0
2016-Sep-20 13:00N 56°00' W 060°48'7 6.7 1017.4 9.0
2016-Sep-20 12:00N 56°00' W 061°00'3 3.4 1018.2 6.5
2016-Sep-20 11:00N 56°00' W 061°06'3 3.4 1018.5 5.3
2016-Sep-20 10:00N 56°00' W 061°12'6 6.0 1019.1 5.8
2016-Sep-20 09:00N 56°06' W 061°12'7 6.9 1019.9 5.3
2016-Sep-20 08:00N 56°12' W 061°18'6 3.0 1020.2 5.8
2016-Sep-20 06:00N 56°18' W 061°18'7 6.9 1021.4 5.8
2016-Sep-20 05:00N 56°24' W 061°24'12 5.8 1022.2 5.0
2016-Sep-20 03:00N 56°30' W 061°42'0 0.0 1022.9 5.3
2016-Sep-20 02:00N 56°30' W 061°42'0 0.0 1023.1 4.8
2016-Sep-20 01:00N 56°30' W 061°42'0 0.0 1023.3 4.8
2016-Sep-20 00:00N 56°30' W 061°42'0 0.0 1023.8 4.3
2016-Sep-19 23:00N 56°30' W 061°42'0 0.0 1024.1 4.8
2016-Sep-19 22:00N 56°30' W 061°42'0 0.0 1024.3 7.3
2016-Sep-19 21:00N 56°30' W 061°42'0 0.0 1024.8 11.5
2016-Sep-19 19:00N 56°30' W 061°42'0 0.0 1025.1 12.5
2016-Sep-19 18:00N 56°30' W 061°42'0 0.0 1025.7 8.8
2016-Sep-19 16:00N 56°30' W 061°42'0 0.0 1026.5 8.3
2016-Sep-19 15:00N 56°30' W 061°42'0 0.0 1027.2 4.5
2016-Sep-19 14:00N 56°30' W 061°42'0 0.0 1027.9 4.8
2016-Sep-19 12:00N 56°30' W 061°42'0 0.0 1028.3 1.3
2016-Sep-19 11:00N 56°30' W 061°42'0 0.0 1028.3 -0.5
2016-Sep-19 10:00N 56°30' W 061°42'0 0.0 1028.1 0.3
2016-Sep-19 09:00N 56°30' W 061°42'0 0.0 1027.9 1.0
2016-Sep-19 08:00N 56°30' W 061°42'6 2.0 1027.9 0.8
2016-Sep-19 05:00N 56°36' W 061°42'6 2.0 1027.4 1.8
2016-Sep-19 02:00N 56°42' W 061°42'0 0.0 1026.8 1.5
2016-Sep-19 00:00N 56°42' W 061°42'7 6.8 1025.8 2.0
2016-Sep-18 23:00N 56°48' W 061°36'6 6.0 1025.1 2.5
2016-Sep-18 22:00N 56°54' W 061°36'7 6.8 1024.6 2.8
2016-Sep-18 21:00N 57°00' W 061°30'9 8.9 1024.3 2.5
2016-Sep-18 20:00N 56°54' W 061°18'6 6.0 1024.0 3.3
2016-Sep-18 19:00N 57°00' W 061°18'7 6.8 1024.0 3.0
2016-Sep-18 18:00N 57°06' W 061°24'7 6.8 1023.5 3.5
2016-Sep-18 17:00N 57°12' W 061°30'7 6.8 1023.2 3.3
2016-Sep-18 16:00N 57°18' W 061°36'6 6.0 1022.8 2.5
2016-Sep-18 15:00N 57°24' W 061°36'6 6.5 1022.7 3.0
2016-Sep-18 14:00N 57°24' W 061°48'6 6.5 1022.1 4.8
2016-Sep-18 13:00N 57°24' W 062°00'7 6.8 1021.8 3.8
2016-Sep-18 12:00N 57°30' W 062°06'7 6.8 1021.3 2.8
2016-Sep-18 11:00N 57°36' W 062°00'3 3.2 1020.9 2.3
2016-Sep-18 10:00N 57°36' W 061°54'6 6.0 1020.2 1.3
2016-Sep-18 09:00N 57°42' W 061°54'3 3.2 1019.8 2.0
2016-Sep-18 08:00N 57°42' W 062°00'0 0.0 1019.6 1.8
2016-Sep-18 07:00N 57°42' W 062°00'0 0.0 1019.6 2.3
2016-Sep-18 06:00N 57°42' W 062°00'0 0.0 1019.4 2.0
2016-Sep-18 03:00N 57°42' W 062°00'0 0.0 1018.7 2.3
2016-Sep-18 02:00N 57°42' W 062°00'0 0.0 1018.6 2.3
2016-Sep-18 01:00N 57°42' W 062°00'0 0.0 1017.8 2.3
2016-Sep-17 23:00N 57°42' W 062°00'0 0.0 1017.1 3.3
2016-Sep-17 22:00N 57°42' W 062°00'0 0.0 1016.2 3.8
2016-Sep-17 21:00N 57°42' W 062°00'0 0.0 1015.6 4.5
2016-Sep-17 20:00N 57°42' W 062°00'0 0.0 1015.2 5.5
2016-Sep-17 18:00N 57°42' W 062°00'0 0.0 1013.5 5.5
2016-Sep-17 17:00N 57°42' W 062°00'0 0.0 1012.8 5.3
2016-Sep-17 16:00N 57°42' W 062°00'0 0.0 1012.0 5.3
2016-Sep-17 15:00N 57°42' W 062°00'0 0.0 1011.3 4.5
2016-Sep-17 14:00N 57°42' W 062°00'   1010.8 4.8

Dump ship's entire track history